Time;durP1;ratioP1;P1;durP2;ratioP2;P2;SDS_P1;SDS_P2;PMS_P1;PMS_P2;Temp;Humidity;BMP_temperature;BMP_pressure;BME280_temperature;BME280_humidity;BME280_pressure;Samples;Min_cycle;Max_cycle;Signal;HPM_P1;HPM_P2
2022/05/04 00:01:27;;;;;;;;;;;;;;;4.24;100.00;101295.56;5061037;28;20321;-76
2022/05/04 00:04:00;;;;;;;;;;;;;;;4.28;100.00;101295.94;5045886;28;20416;-77
2022/05/04 00:06:32;;;;;;;;;;;;;;;4.26;100.00;101304.22;5044897;28;19924;-76
2022/05/04 00:09:05;;;;;;;;;;;;;;;4.26;100.00;101295.34;5037084;28;19933;-76
2022/05/04 00:11:40;;;;;;;;;;;;;;;4.28;100.00;101295.09;5042387;28;19929;-76
2022/05/04 00:14:13;;;;;;;;;;;;;;;4.32;100.00;101293.63;5041687;28;20286;-77
2022/05/04 00:16:42;;;;;;;;;;;;;;;4.29;100.00;101292.19;5049666;28;20352;-77
2022/05/04 00:19:15;;;;;;;;;;;;;;;4.29;100.00;101292.19;5038925;28;19925;-76
2022/05/04 00:21:48;;;;;;;;;;;;;;;4.18;100.00;101291.03;5047490;28;19939;-77
2022/05/04 00:24:19;;;;;;;;;;;;;;;4.13;100.00;101292.75;5035745;28;19929;-75
2022/05/04 00:26:52;;;;;;;;;;;;;;;4.15;100.00;101293.38;5047850;28;19936;-76
2022/05/04 00:29:20;;;;;;;;;;;;;;;4.17;100.00;101285.88;5044846;28;20385;-78
2022/05/04 00:31:54;;;;;;;;;;;;;;;4.16;100.00;101289.66;5046555;28;19940;-77
2022/05/04 00:34:28;;;;;;;;;;;;;;;4.06;100.00;101290.97;5044413;28;19928;-77
2022/05/04 00:37:01;;;;;;;;;;;;;;;4.00;100.00;101293.72;5039311;28;19925;-76
2022/05/04 00:39:29;;;;;;;;;;;;;;;4.05;100.00;101283.91;5077874;28;19925;-76
2022/05/04 00:42:06;;;;;;;;;;;;;;;4.01;100.00;101292.69;5046206;28;20416;-76
2022/05/04 00:44:39;;;;;;;;;;;;;;;3.96;100.00;101295.19;5051700;28;19932;-77
2022/05/04 00:47:14;;;;;;;;;;;;;;;3.74;100.00;101296.41;5043575;28;19932;-76
2022/05/04 00:49:43;;;;;;;;;;;;;;;3.70;100.00;101289.81;5045235;28;19955;-76
2022/05/04 00:52:17;;;;;;;;;;;;;;;3.62;100.00;101291.94;5075148;28;20646;-76
2022/05/04 00:54:50;;;;;;;;;;;;;;;3.61;100.00;101299.19;5052213;28;19931;-77
2022/05/04 01:00:12;;;;;;;;;;;;;;;3.53;100.00;101294.88;5077275;28;19932;-77
2022/05/04 01:02:46;;;;;;;;;;;;;;;3.55;100.00;101292.81;5044599;28;19925;-76
2022/05/04 01:05:19;;;;;;;;;;;;;;;3.59;100.00;101287.84;5074386;28;19925;-77
2022/05/04 01:07:52;;;;;;;;;;;;;;;3.61;100.00;101295.69;5051577;28;19936;-76
2022/05/04 01:10:20;;;;;;;;;;;;;;;3.54;100.00;101295.72;5044259;28;19926;-76
2022/05/04 01:12:54;;;;;;;;;;;;;;;3.51;100.00;101288.09;5050512;28;19929;-78
2022/05/04 01:15:27;;;;;;;;;;;;;;;3.46;100.00;101286.03;5043375;28;19924;-77
2022/05/04 01:17:56;;;;;;;;;;;;;;;3.42;100.00;101286.69;5050128;28;19940;-76
2022/05/04 01:20:29;;;;;;;;;;;;;;;3.36;100.00;101291.09;5045601;28;19931;-76
2022/05/04 01:23:03;;;;;;;;;;;;;;;3.33;100.00;101294.19;5045779;28;19933;-76
2022/05/04 01:25:32;;;;;;;;;;;;;;;3.28;100.00;101294.84;5047803;28;19925;-76
2022/05/04 01:28:05;;;;;;;;;;;;;;;3.36;100.00;101293.78;5041473;28;20416;-76
2022/05/04 01:30:39;;;;;;;;;;;;;;;3.33;100.00;101295.03;5046124;28;19929;-76
2022/05/04 01:33:07;;;;;;;;;;;;;;;3.21;100.00;101294.06;5048690;28;19929;-76
2022/05/04 01:35:35;;;;;;;;;;;;;;;3.33;100.00;101291.50;5043237;28;19929;-76
2022/05/04 01:38:09;;;;;;;;;;;;;;;3.36;100.00;101291.91;5046862;28;19929;-76
2022/05/04 01:40:42;;;;;;;;;;;;;;;3.29;100.00;101283.06;5034880;28;19933;-76
2022/05/04 01:43:15;;;;;;;;;;;;;;;3.20;100.00;101287.88;5080154;28;19925;-75
2022/05/04 01:45:48;;;;;;;;;;;;;;;3.21;100.00;101281.44;5052212;28;19932;-76
2022/05/04 01:48:21;;;;;;;;;;;;;;;3.29;100.00;101284.94;5039546;28;19932;-77
2022/05/04 01:50:54;;;;;;;;;;;;;;;3.18;100.00;101278.38;5038854;28;19952;-76
2022/05/04 01:53:30;;;;;;;;;;;;;;;3.19;100.00;101294.28;5046684;28;19936;-76
2022/05/04 01:56:07;;;;;;;;;;;;;;;3.19;100.00;101286.22;5042668;28;19935;-76
2022/05/04 01:58:40;;;;;;;;;;;;;;;3.21;100.00;101284.13;5045819;28;19925;-79
2022/05/04 02:01:14;;;;;;;;;;;;;;;3.17;100.00;101282.91;5048637;28;19929;-78
2022/05/04 02:03:46;;;;;;;;;;;;;;;3.09;100.00;101288.53;5041770;28;19925;-78
2022/05/04 02:06:15;;;;;;;;;;;;;;;3.05;100.00;101273.88;5045045;28;19936;-78
2022/05/04 02:08:45;;;;;;;;;;;;;;;3.01;100.00;101280.72;5077622;28;19929;-77
2022/05/04 02:11:18;;;;;;;;;;;;;;;3.05;100.00;101279.25;5045389;28;19926;-78
2022/05/04 02:13:51;;;;;;;;;;;;;;;3.05;100.00;101285.47;5041061;28;19925;-77
2022/05/04 02:16:24;;;;;;;;;;;;;;;3.05;100.00;101279.25;5050046;28;20570;-77
2022/05/04 02:18:57;;;;;;;;;;;;;;;3.10;100.00;101271.38;5048588;28;19928;-78
2022/05/04 02:21:30;;;;;;;;;;;;;;;3.07;100.00;101279.88;5038582;28;19930;-78
2022/05/04 02:23:59;;;;;;;;;;;;;;;3.03;100.00;101284.03;5044048;28;19932;-77
2022/05/04 02:26:33;;;;;;;;;;;;;;;2.97;100.00;101283.03;5042277;28;19929;-78
2022/05/04 02:29:05;;;;;;;;;;;;;;;2.96;100.00;101286.75;5043702;28;19925;-78
2022/05/04 02:31:33;;;;;;;;;;;;;;;3.01;100.00;101291.47;5081853;28;19928;-77
2022/05/04 02:34:06;;;;;;;;;;;;;;;3.13;100.00;101280.88;5058504;28;19931;-78
2022/05/04 02:39:26;;;;;;;;;;;;;;;3.04;100.00;101283.81;5044105;28;19948;-77
2022/05/04 02:41:54;;;;;;;;;;;;;;;2.94;100.00;101286.16;5042498;28;19929;-78
2022/05/04 02:44:27;;;;;;;;;;;;;;;2.97;100.00;101279.50;5043301;28;19928;-78
2022/05/04 02:47:00;;;;;;;;;;;;;;;2.92;100.00;101282.84;5053047;28;19925;-77
2022/05/04 02:49:33;;;;;;;;;;;;;;;2.93;100.00;101284.50;5055689;28;20272;-78
2022/05/04 02:52:06;;;;;;;;;;;;;;;3.03;100.00;101275.97;5040337;28;19925;-78
2022/05/04 02:54:41;;;;;;;;;;;;;;;3.02;100.00;101282.38;5050489;28;19931;-78
2022/05/04 02:57:13;;;;;;;;;;;;;;;2.97;100.00;101284.88;5043750;28;19936;-80
2022/05/04 02:59:46;;;;;;;;;;;;;;;2.98;100.00;101281.16;5045501;28;19931;-77
2022/05/04 03:02:28;;;;;;;;;;;;;;;3.02;100.00;101287.75;5042064;28;19929;-78
2022/05/04 03:05:02;;;;;;;;;;;;;;;3.04;100.00;101283.81;5049150;28;19925;-77
2022/05/04 03:07:35;;;;;;;;;;;;;;;3.02;100.00;101280.50;5046590;28;20365;-77
2022/05/04 03:10:10;;;;;;;;;;;;;;;3.03;100.00;101289.41;5047202;28;20308;-79
2022/05/04 03:12:38;;;;;;;;;;;;;;;2.99;100.00;101289.00;5044028;28;19929;-78
2022/05/04 03:15:11;;;;;;;;;;;;;;;2.96;100.00;101283.25;5046908;28;19933;-77
2022/05/04 03:17:39;;;;;;;;;;;;;;;2.93;100.00;101289.03;5043979;28;19944;-78
2022/05/04 03:20:13;;;;;;;;;;;;;;;2.92;100.00;101284.72;5049685;28;19936;-78
2022/05/04 03:22:46;;;;;;;;;;;;;;;2.90;100.00;101284.94;5043498;28;19925;-78
2022/05/04 03:25:15;;;;;;;;;;;;;;;2.89;100.00;101288.66;5046189;28;19948;-77
2022/05/04 03:27:49;;;;;;;;;;;;;;;2.86;100.00;101279.13;5040230;28;19929;-78
2022/05/04 03:30:22;;;;;;;;;;;;;;;2.82;100.00;101277.91;5047236;28;20370;-77
2022/05/04 03:32:55;;;;;;;;;;;;;;;2.71;100.00;101278.59;5052470;28;19932;-78
2022/05/04 03:35:28;;;;;;;;;;;;;;;2.70;100.00;101275.06;5054021;28;19936;-78
2022/05/04 03:38:01;;;;;;;;;;;;;;;2.79;100.00;101288.25;5039685;28;19939;-77
2022/05/04 03:40:35;;;;;;;;;;;;;;;2.82;100.00;101285.97;5049397;28;19937;-77
2022/05/04 03:43:03;;;;;;;;;;;;;;;2.82;100.00;101282.47;5042381;28;19929;-78
2022/05/04 03:45:36;;;;;;;;;;;;;;;2.81;100.00;101278.94;5053401;28;19924;-77
2022/05/04 03:48:09;;;;;;;;;;;;;;;2.79;100.00;101277.50;5053204;28;20373;-80
2022/05/04 03:50:44;;;;;;;;;;;;;;;2.77;100.00;101282.28;5049318;28;19952;-78
2022/05/04 03:53:12;;;;;;;;;;;;;;;2.74;100.00;101288.91;5034741;28;20400;-77
2022/05/04 03:55:41;;;;;;;;;;;;;;;2.76;100.00;101275.25;5042291;28;20270;-78
2022/05/04 03:58:14;;;;;;;;;;;;;;;2.76;100.00;101289.50;5038507;28;19940;-78
2022/05/04 04:00:47;;;;;;;;;;;;;;;2.77;100.00;101283.09;5046079;28;19931;-77
2022/05/04 04:03:15;;;;;;;;;;;;;;;2.79;100.00;101285.56;5035535;28;19941;-77
2022/05/04 04:05:48;;;;;;;;;;;;;;;2.79;100.00;101280.19;5040623;28;20530;-77
2022/05/04 04:08:21;;;;;;;;;;;;;;;2.83;100.00;101281.41;5040476;28;20385;-78
2022/05/04 04:10:55;;;;;;;;;;;;;;;2.83;100.00;101284.09;5042565;28;19925;-77
2022/05/04 04:13:28;;;;;;;;;;;;;;;2.82;100.00;101285.97;5043850;28;19955;-77
2022/05/04 04:16:01;;;;;;;;;;;;;;;2.86;100.00;101287.19;5051422;28;20289;-78
2022/05/04 04:18:34;;;;;;;;;;;;;;;2.88;100.00;101298.56;5044911;28;20392;-78
2022/05/04 04:23:58;;;;;;;;;;;;;;;3.06;100.00;101294.34;5036797;28;19925;-78
2022/05/04 04:26:32;;;;;;;;;;;;;;;3.12;100.00;101293.50;5041659;28;20000;-77
2022/05/04 04:29:05;;;;;;;;;;;;;;;3.17;100.00;101301.72;5034135;28;19944;-77
2022/05/04 04:31:38;;;;;;;;;;;;;;;3.23;100.00;101300.88;5040647;28;19932;-78
2022/05/04 04:34:11;;;;;;;;;;;;;;;3.30;100.00;101297.31;5039765;28;19924;-78
2022/05/04 04:36:44;;;;;;;;;;;;;;;3.38;100.00;101297.06;5044665;28;19936;-78
2022/05/04 04:39:17;;;;;;;;;;;;;;;3.35;100.00;101302.88;5038603;28;19929;-78
2022/05/04 04:41:51;;;;;;;;;;;;;;;3.44;100.00;101296.22;5040988;28;19929;-78
2022/05/04 04:44:25;;;;;;;;;;;;;;;3.48;100.00;101302.81;5046388;28;19929;-78
2022/05/04 04:46:58;;;;;;;;;;;;;;;3.52;100.00;101305.88;5040696;28;19925;-78
2022/05/04 04:49:31;;;;;;;;;;;;;;;3.59;100.00;101309.38;5080614;28;19931;-77
2022/05/04 04:52:04;;;;;;;;;;;;;;;3.56;100.00;101304.41;5041284;28;20385;-77
2022/05/04 04:54:37;;;;;;;;;;;;;;;3.69;100.00;101303.50;5045943;28;20289;-78
2022/05/04 04:57:11;;;;;;;;;;;;;;;3.63;100.00;101309.75;5041101;28;19933;-77
2022/05/04 04:59:44;;;;;;;;;;;;;;;4.24;100.00;101308.22;5039625;28;19929;-79
2022/05/04 05:02:12;;;;;;;;;;;;;;;5.67;100.00;101304.38;5044687;28;19995;-78
2022/05/04 05:04:45;;;;;;;;;;;;;;;7.08;100.00;101297.22;5049685;28;19929;-78
2022/05/04 05:07:19;;;;;;;;;;;;;;;7.74;100.00;101291.38;5048595;28;19929;-79
2022/05/04 05:09:52;;;;;;;;;;;;;;;8.97;100.00;101284.16;5038571;28;20604;-78
2022/05/04 05:12:26;;;;;;;;;;;;;;;9.49;100.00;101291.75;5047375;28;19929;-79
2022/05/04 05:17:44;;;;;;;;;;;;;;;9.87;100.00;101286.34;5053535;28;19932;-78
2022/05/04 05:20:18;;;;;;;;;;;;;;;9.43;100.00;101290.06;5078083;28;20378;-77
2022/05/04 05:22:46;;;;;;;;;;;;;;;8.54;100.00;101297.47;5041046;28;19929;-78
2022/05/04 05:25:19;;;;;;;;;;;;;;;7.49;100.00;101298.00;5044823;28;19929;-78
2022/05/04 05:27:55;;;;;;;;;;;;;;;6.57;100.00;101299.72;5046087;28;19932;-78
2022/05/04 05:30:28;;;;;;;;;;;;;;;6.24;100.00;101296.59;5046542;28;20301;-78
2022/05/04 05:33:01;;;;;;;;;;;;;;;5.98;100.00;101300.56;5042952;28;19935;-78
2022/05/04 05:35:33;;;;;;;;;;;;;;;6.04;100.00;101302.31;5038927;28;19936;-78
2022/05/04 05:38:08;;;;;;;;;;;;;;;6.64;100.00;101298.53;5040520;28;19933;-78
2022/05/04 05:40:41;;;;;;;;;;;;;;;6.76;100.00;101303.09;5051832;28;19925;-77
2022/05/04 05:43:16;;;;;;;;;;;;;;;6.83;100.00;101295.66;5044355;28;19928;-78
2022/05/04 05:45:44;;;;;;;;;;;;;;;6.83;100.00;101303.78;5041370;28;19925;-77
2022/05/04 05:48:19;;;;;;;;;;;;;;;6.94;100.00;101296.69;5044809;28;20039;-77
2022/05/04 05:50:47;;;;;;;;;;;;;;;6.84;100.00;101300.00;5045878;28;19925;-78
2022/05/04 05:53:22;;;;;;;;;;;;;;;6.95;100.00;101293.75;5045318;28;19925;-79
2022/05/04 05:55:55;;;;;;;;;;;;;;;6.94;100.00;101296.69;5040086;28;19936;-79
2022/05/04 05:58:24;;;;;;;;;;;;;;;6.91;100.00;101294.47;5038955;28;19932;-78
2022/05/04 06:00:57;;;;;;;;;;;;;;;7.08;100.00;101291.81;5045225;28;19945;-78
2022/05/04 06:03:31;;;;;;;;;;;;;;;7.10;100.00;101300.53;5044178;28;20374;-78
2022/05/04 06:06:03;;;;;;;;;;;;;;;7.15;100.00;101298.75;5040086;28;20393;-77
2022/05/04 06:08:31;;;;;;;;;;;;;;;7.29;100.00;101293.84;5045687;28;19932;-78
2022/05/04 06:11:05;;;;;;;;;;;;;;;7.43;100.00;101302.50;5049270;28;19928;-78
2022/05/04 06:13:34;;;;;;;;;;;;;;;7.45;100.00;101286.81;5052505;28;20281;-77
2022/05/04 06:16:07;;;;;;;;;;;;;;;7.65;100.00;101283.66;5046111;28;19925;-79
2022/05/04 06:18:40;;;;;;;;;;;;;;;7.76;100.00;101289.22;5045061;28;19987;-80
2022/05/04 06:21:07;;;;;;;;;;;;;;;7.75;100.00;101291.13;5041958;28;19933;-77
2022/05/04 06:23:41;;;;;;;;;;;;;;;7.76;100.00;101290.06;5062528;28;20377;-77
2022/05/04 06:26:14;;;;;;;;;;;;;;;7.72;100.00;101285.34;5042772;28;19936;-78
2022/05/04 06:28:48;;;;;;;;;;;;;;;7.74;100.00;101294.88;5041853;28;19940;-78
2022/05/04 06:34:12;;;;;;;;;;;;;;;8.04;100.00;101292.91;5044350;28;19925;-77
2022/05/04 06:36:45;;;;;;;;;;;;;;;7.86;100.00;101286.69;5042817;28;19928;-79
2022/05/04 06:39:17;;;;;;;;;;;;;;;8.17;100.00;101282.56;5028949;28;21303;-78
2022/05/04 06:41:51;;;;;;;;;;;;;;;8.13;100.00;101294.13;5034033;28;19933;-78
2022/05/04 06:44:20;;;;;;;;;;;;;;;8.31;100.00;101295.75;5028981;28;20015;-79
2022/05/04 06:46:49;;;;;;;;;;;;;;;8.39;100.00;101289.91;5031922;28;19940;-78
2022/05/04 06:49:22;;;;;;;;;;;;;;;8.32;100.00;101292.78;5058289;28;19933;-79
2022/05/04 06:51:55;;;;;;;;;;;;;;;8.62;100.00;101296.22;5024917;28;19943;-79
2022/05/04 06:54:28;;;;;;;;;;;;;;;8.44;100.00;101289.16;5027884;28;19933;-78
2022/05/04 06:56:56;;;;;;;;;;;;;;;8.46;100.00;101287.84;5029806;28;19936;-79
2022/05/04 06:59:30;;;;;;;;;;;;;;;8.51;100.00;101296.06;5028616;28;19955;-79
2022/05/04 07:02:03;;;;;;;;;;;;;;;8.54;100.00;101289.31;5025587;28;19948;-80
2022/05/04 07:04:38;;;;;;;;;;;;;;;8.43;100.00;101296.47;5026538;28;19940;-81
2022/05/04 07:07:11;;;;;;;;;;;;;;;8.56;100.00;101284.47;5033100;28;19940;-80
2022/05/04 07:09:39;;;;;;;;;;;;;;;8.83;100.00;101297.28;5038864;28;19929;-77
2022/05/04 07:12:08;;;;;;;;;;;;;;;9.07;100.00;101294.31;5032765;28;19940;-78
2022/05/04 07:14:38;;;;;;;;;;;;;;;9.12;100.00;101292.47;5024672;28;20428;-78
2022/05/04 07:17:10;;;;;;;;;;;;;;;8.91;100.00;101290.56;5028932;28;20332;-78
2022/05/04 07:19:43;;;;;;;;;;;;;;;8.96;100.00;101291.47;5028346;28;19932;-78
2022/05/04 07:22:11;;;;;;;;;;;;;;;9.19;100.00;101286.84;5025120;28;20650;-79
2022/05/04 07:24:39;;;;;;;;;;;;;;;9.09;100.00;101281.31;5025118;28;20519;-78
2022/05/04 07:27:12;;;;;;;;;;;;;;;9.39;100.00;101290.81;5027040;28;19940;-76
2022/05/04 07:29:47;;;;;;;;;;;;;;;9.31;100.00;101286.69;5032222;28;19936;-77
2022/05/04 07:32:20;;;;;;;;;;;;;;;9.30;100.00;101283.13;5024878;28;19933;-79
2022/05/04 07:34:53;;;;;;;;;;;;;;;9.52;100.00;101288.50;5023827;28;20491;-78
2022/05/04 07:37:26;;;;;;;;;;;;;;;9.33;100.00;101281.81;5024718;28;19933;-79
2022/05/04 07:42:53;;;;;;;;;;;;;;;9.18;100.00;101296.03;4999697;28;19932;-77
2022/05/04 07:45:23;;;;;;;;;;;;;;;9.35;100.00;101290.53;5024370;28;19932;-78
2022/05/04 07:47:56;;;;;;;;;;;;;;;9.70;100.00;101281.06;5028819;28;19939;-77
2022/05/04 07:50:29;;;;;;;;;;;;;;;9.39;100.00;101283.53;5020037;28;20012;-78
2022/05/04 07:53:03;;;;;;;;;;;;;;;9.43;100.00;101286.53;5023704;28;19933;-79
2022/05/04 07:55:31;;;;;;;;;;;;;;;9.79;100.00;101281.41;5025223;28;19933;-79
2022/05/04 07:58:04;;;;;;;;;;;;;;;9.80;100.00;101281.13;5025060;28;19932;-79
2022/05/04 08:06:11;;;;;;;;;;;;;;;9.81;100.00;101295.56;5022891;28;19936;-78
2022/05/04 08:08:44;;;;;;;;;;;;;;;9.78;100.00;101280.59;5024131;28;19933;-79
2022/05/04 08:11:17;;;;;;;;;;;;;;;9.80;100.00;101285.75;5027905;28;20492;-78
2022/05/04 08:13:50;;;;;;;;;;;;;;;10.01;100.00;101284.84;5020333;28;19932;-80
2022/05/04 08:16:19;;;;;;;;;;;;;;;9.67;100.00;101287.03;5059930;28;19933;-77
2022/05/04 08:18:52;;;;;;;;;;;;;;;9.98;100.00;101289.97;5022934;28;19939;-79
2022/05/04 08:21:20;;;;;;;;;;;;;;;10.21;100.00;101294.22;5021637;28;20285;-78
2022/05/04 08:23:53;;;;;;;;;;;;;;;10.10;100.00;101295.25;5026078;28;19947;-79
2022/05/04 08:26:21;;;;;;;;;;;;;;;10.14;100.00;101294.44;5024504;28;19932;-76
2022/05/04 08:28:54;;;;;;;;;;;;;;;10.10;100.00;101295.25;5024083;28;20380;-77
2022/05/04 08:31:29;;;;;;;;;;;;;;;10.51;100.00;101292.81;5018737;28;21227;-77
2022/05/04 08:34:02;;;;;;;;;;;;;;;10.58;100.00;101300.69;5022614;28;19932;-79
2022/05/04 08:36:37;;;;;;;;;;;;;;;10.39;100.00;101295.72;5022410;28;19932;-79
2022/05/04 08:39:06;;;;;;;;;;;;;;;10.29;100.00;101299.16;5022823;28;19940;-79
2022/05/04 08:41:39;;;;;;;;;;;;;;;10.46;100.00;101292.75;5026530;28;19936;-79
2022/05/04 08:44:13;;;;;;;;;;;;;;;10.55;100.00;101300.16;5031910;28;21380;-78
2022/05/04 08:46:47;;;;;;;;;;;;;;;10.37;100.00;101301.44;5021908;28;19940;-77
2022/05/04 08:49:20;;;;;;;;;;;;;;;10.27;100.00;101297.78;5024195;28;19937;-78
2022/05/04 08:51:55;;;;;;;;;;;;;;;10.54;100.00;101297.72;5024895;28;20405;-78
2022/05/04 08:54:23;;;;;;;;;;;;;;;10.58;100.00;101303.41;5029569;28;19939;-80
2022/05/04 08:56:56;;;;;;;;;;;;;;;11.09;100.00;101292.75;5021206;28;19947;-78
2022/05/04 08:59:29;;;;;;;;;;;;;;;11.08;100.00;101291.09;5055771;28;19940;-78
2022/05/04 09:02:04;;;;;;;;;;;;;;;10.88;100.00;101291.84;5028664;28;19955;-80
2022/05/04 09:04:42;;;;;;;;;;;;;;;10.90;100.00;101289.69;5026969;28;19940;-78
2022/05/04 09:07:22;;;;;;;;;;;;;;;11.11;100.00;101287.84;5024475;28;20011;-78
2022/05/04 09:09:55;;;;;;;;;;;;;;;11.04;100.00;101295.47;5025756;28;19963;-78
2022/05/04 09:12:31;;;;;;;;;;;;;;;11.31;100.00;101292.53;5024095;28;20369;-78
2022/05/04 09:15:08;;;;;;;;;;;;;;;10.92;100.00;101287.50;5023528;28;19944;-79
2022/05/04 09:17:42;;;;;;;;;;;;;;;10.48;100.00;101291.44;5020225;28;19932;-78
2022/05/04 09:23:06;;;;;;;;;;;;;;;10.73;100.00;101292.63;5028830;28;21150;-78
2022/05/04 09:25:40;;;;;;;;;;;;;;;10.99;100.00;101288.09;5023109;28;19940;-78
2022/05/04 09:28:12;;;;;;;;;;;;;;;11.47;100.00;101289.81;5031032;28;21536;-78
2022/05/04 09:30:46;;;;;;;;;;;;;;;11.37;100.00;101277.81;5022584;28;19939;-79
2022/05/04 09:33:22;;;;;;;;;;;;;;;11.95;100.00;101274.03;5019720;28;19939;-78
2022/05/04 09:35:55;;;;;;;;;;;;;;;11.92;100.00;101282.75;5019812;28;19932;-77
2022/05/04 09:46:51;;;;;;;;;;;;;;;12.40;100.00;101268.75;5018987;28;19933;-77
2022/05/04 09:49:22;;;;;;;;;;;;;;;12.59;99.76;101271.69;5025213;28;19948;-78
2022/05/04 09:51:55;;;;;;;;;;;;;;;12.62;93.05;101264.88;5037629;28;19932;-78
2022/05/04 09:54:29;;;;;;;;;;;;;;;12.53;86.86;101268.19;5028512;28;20058;-78
2022/05/04 09:57:03;;;;;;;;;;;;;;;12.43;86.75;101268.22;5027324;28;21251;-78
2022/05/04 09:59:36;;;;;;;;;;;;;;;12.70;95.03;101273.28;5020293;28;19933;-77
2022/05/04 10:02:10;;;;;;;;;;;;;;;12.78;86.86;101274.63;5021137;28;19943;-78
2022/05/04 10:04:46;;;;;;;;;;;;;;;13.04;94.88;101275.31;5024557;28;20289;-78
2022/05/04 10:07:21;;;;;;;;;;;;;;;12.97;99.42;101274.81;5020266;28;19935;-78
2022/05/04 10:09:53;;;;;;;;;;;;;;;12.98;86.26;101272.88;5022895;28;19940;-78
2022/05/04 10:12:27;;;;;;;;;;;;;;;13.17;84.15;101273.06;5022306;28;21493;-78
2022/05/04 10:15:01;;;;;;;;;;;;;;;13.40;98.80;101266.91;5020618;28;19939;-78
2022/05/04 10:17:36;;;;;;;;;;;;;;;13.27;96.84;101267.50;5056623;28;19933;-78
2022/05/04 10:20:12;;;;;;;;;;;;;;;13.29;89.00;101265.34;5021724;28;19932;-78
2022/05/04 10:22:48;;;;;;;;;;;;;;;13.02;81.39;101272.06;5022339;28;19933;-79
2022/05/04 10:25:23;;;;;;;;;;;;;;;12.87;89.52;101266.66;5035224;28;20350;-78
2022/05/04 10:27:52;;;;;;;;;;;;;;;13.07;89.19;101265.75;5023222;28;19935;-78
2022/05/04 10:30:34;;;;;;;;;;;;;;;13.39;85.08;101264.47;5027468;28;19933;-78
2022/05/04 10:33:09;;;;;;;;;;;;;;;13.34;93.78;101259.00;5027796;28;19951;-77
2022/05/04 10:35:41;;;;;;;;;;;;;;;13.00;92.30;101271.50;5026638;28;19933;-78
2022/05/04 10:38:16;;;;;;;;;;;;;;;12.62;86.46;101264.88;5006821;28;19933;-78
2022/05/04 10:40:50;;;;;;;;;;;;;;;12.74;91.17;101260.72;5038201;28;19955;-79
2022/05/04 10:43:33;;;;;;;;;;;;;;;12.31;85.40;101260.31;5008016;28;19939;-78
2022/05/04 10:46:11;;;;;;;;;;;;;;;12.58;99.11;101251.78;5019598;28;19944;-79
2022/05/04 10:48:44;;;;;;;;;;;;;;;12.59;98.09;101250.69;5025128;28;19947;-79
2022/05/04 10:51:21;;;;;;;;;;;;;;;12.66;89.12;101250.38;5023037;28;19932;-79
2022/05/04 10:53:58;;;;;;;;;;;;;;;12.91;86.61;101254.91;5024063;28;19933;-79
2022/05/04 10:56:36;;;;;;;;;;;;;;;12.52;91.32;101252.88;5029484;28;19933;-77
2022/05/04 10:59:09;;;;;;;;;;;;;;;12.44;90.71;101250.72;5033317;28;19944;-77
2022/05/04 11:01:44;;;;;;;;;;;;;;;12.35;90.37;101245.03;5030769;28;19932;-82
2022/05/04 11:04:22;;;;;;;;;;;;;;;12.80;86.97;101247.88;5029686;28;20328;-80
2022/05/04 11:07:05;;;;;;;;;;;;;;;12.92;87.76;101242.84;5029905;28;19933;-80
2022/05/04 11:09:42;;;;;;;;;;;;;;;12.86;83.13;101238.53;5034008;28;19933;-81
2022/05/04 11:12:15;;;;;;;;;;;;;;;13.32;82.96;101236.63;5023713;28;19933;-80
2022/05/04 11:14:48;;;;;;;;;;;;;;;13.29;96.81;101235.25;5027590;28;20451;-77
2022/05/04 11:17:21;;;;;;;;;;;;;;;13.02;78.85;101249.38;5024850;28;19959;-80
2022/05/04 11:19:53;;;;;;;;;;;;;;;12.85;84.47;101247.81;5027313;28;19933;-78
2022/05/04 11:22:28;;;;;;;;;;;;;;;12.86;80.80;101235.00;5029629;28;19932;-78
2022/05/04 11:24:58;;;;;;;;;;;;;;;12.69;86.45;101235.34;5026404;28;19933;-77
2022/05/04 11:27:32;;;;;;;;;;;;;;;12.63;84.88;101236.47;5026336;28;19933;-80
2022/05/04 11:30:05;;;;;;;;;;;;;;;12.39;81.02;101229.72;5017988;28;19942;-81
2022/05/04 11:32:40;;;;;;;;;;;;;;;12.61;91.92;101220.38;5024003;28;19929;-79
2022/05/04 11:35:14;;;;;;;;;;;;;;;12.78;90.06;101222.75;5023506;28;21449;-79
2022/05/04 11:37:43;;;;;;;;;;;;;;;12.88;93.64;101222.66;5019346;28;19932;-80
2022/05/04 11:40:17;;;;;;;;;;;;;;;12.63;81.49;101217.38;5027419;28;19928;-80
2022/05/04 11:42:50;;;;;;;;;;;;;;;12.65;84.18;101224.19;5031038;28;20386;-80
2022/05/04 11:45:23;;;;;;;;;;;;;;;12.93;84.34;101227.31;5028642;28;19933;-79
2022/05/04 11:47:52;;;;;;;;;;;;;;;12.78;85.34;101222.75;5026581;28;19932;-78
2022/05/04 11:50:25;;;;;;;;;;;;;;;12.56;88.25;101223.13;5023773;28;19933;-79
2022/05/04 11:52:59;;;;;;;;;;;;;;;12.57;92.69;101214.66;5021039;28;20613;-79
2022/05/04 11:55:28;;;;;;;;;;;;;;;12.86;84.13;101210.41;5051852;28;19932;-79
2022/05/04 11:57:59;;;;;;;;;;;;;;;13.18;80.20;101206.38;5027736;28;19928;-80
2022/05/04 12:00:28;;;;;;;;;;;;;;;12.80;76.75;101214.25;5022991;28;19933;-79
2022/05/04 12:03:01;;;;;;;;;;;;;;;13.38;92.58;101200.78;5036051;28;19929;-79
2022/05/04 12:05:29;;;;;;;;;;;;;;;13.59;85.85;101204.16;5026903;28;20594;-78
2022/05/04 12:08:04;;;;;;;;;;;;;;;13.55;74.33;101203.09;5021969;28;20583;-78
2022/05/04 12:10:37;;;;;;;;;;;;;;;13.26;84.85;101209.31;5023673;28;19940;-78
2022/05/04 12:13:10;;;;;;;;;;;;;;;13.40;74.75;101201.31;5021610;28;20724;-79
2022/05/04 12:15:43;;;;;;;;;;;;;;;13.61;81.80;101195.66;5027186;28;19940;-79
2022/05/04 12:18:12;;;;;;;;;;;;;;;13.76;80.81;101191.97;5022130;28;19940;-79
2022/05/04 12:20:45;;;;;;;;;;;;;;;13.92;75.89;101198.91;5023876;28;21195;-78
2022/05/04 12:23:14;;;;;;;;;;;;;;;13.45;75.18;101205.94;5058440;28;19936;-79
2022/05/04 12:25:47;;;;;;;;;;;;;;;13.66;75.69;101197.53;5024813;28;19928;-80
2022/05/04 12:28:20;;;;;;;;;;;;;;;13.39;84.32;101198.84;5025472;28;19933;-78
2022/05/04 12:33:39;;;;;;;;;;;;;;;14.27;84.99;101185.13;5019078;28;19928;-79
2022/05/04 12:36:12;;;;;;;;;;;;;;;14.45;82.07;101189.81;5025539;28;19932;-80
2022/05/04 12:38:48;;;;;;;;;;;;;;;14.03;68.82;101172.25;5021851;28;20493;-79
2022/05/04 12:41:22;;;;;;;;;;;;;;;14.54;74.30;101175.47;5020483;28;19932;-79
2022/05/04 12:43:51;;;;;;;;;;;;;;;14.21;65.54;101178.06;5022519;28;19932;-79
2022/05/04 12:46:24;;;;;;;;;;;;;;;14.36;76.78;101177.06;5019763;28;20574;-78
2022/05/04 12:48:52;;;;;;;;;;;;;;;14.58;70.94;101174.59;5019654;28;19991;-79
2022/05/04 12:51:25;;;;;;;;;;;;;;;14.68;77.45;101176.41;5021299;28;19940;-79
2022/05/04 12:53:59;;;;;;;;;;;;;;;14.48;71.85;101177.47;5023723;28;19940;-80
2022/05/04 12:56:47;;;;;;;;;;;;;;;14.34;70.13;101174.63;5022678;28;19933;-79
2022/05/04 12:59:15;;;;;;;;;;;;;;;14.38;80.47;101172.94;5025975;28;19939;-80
2022/05/04 13:01:48;;;;;;;;;;;;;;;14.20;74.08;101169.03;5016558;28;19940;-80
2022/05/04 13:04:21;;;;;;;;;;;;;;;14.25;76.17;101165.41;5021996;28;19940;-79
2022/05/04 13:06:49;;;;;;;;;;;;;;;14.16;70.70;101168.00;5021345;28;19933;-79
2022/05/04 13:09:24;;;;;;;;;;;;;;;14.07;73.39;101164.28;5029698;28;19959;-79
2022/05/04 13:11:57;;;;;;;;;;;;;;;14.26;75.52;101169.78;5021318;28;19939;-77
2022/05/04 13:14:25;;;;;;;;;;;;;;;14.58;75.02;101165.53;5056265;28;19933;-79
2022/05/04 13:16:58;;;;;;;;;;;;;;;14.40;71.48;101158.94;5021096;28;19939;-78
2022/05/04 13:19:31;;;;;;;;;;;;;;;14.20;68.48;101160.84;5030832;28;19933;-78
2022/05/04 13:22:04;;;;;;;;;;;;;;;14.38;72.34;101159.25;5028923;28;19928;-78
2022/05/04 13:24:33;;;;;;;;;;;;;;;14.33;77.70;101153.81;5030356;28;19933;-79
2022/05/04 13:27:06;;;;;;;;;;;;;;;14.07;81.66;101153.31;5025988;28;20433;-78
2022/05/04 13:29:41;;;;;;;;;;;;;;;14.12;72.92;101156.00;5025678;28;19959;-78
2022/05/04 13:32:14;;;;;;;;;;;;;;;14.57;69.77;101156.53;5028073;28;19941;-79
2022/05/04 13:34:42;;;;;;;;;;;;;;;14.51;68.95;101149.47;5023840;28;19933;-77
2022/05/04 13:37:14;;;;;;;;;;;;;;;14.66;69.38;101148.47;5025022;28;20353;-79
2022/05/04 13:39:44;;;;;;;;;;;;;;;14.52;74.38;101139.34;5017036;28;19932;-78